National Weather Service United States Department of Commerce

Aviation Forecast Discussion

.AVIATION...
00Z TAFS: The snow showers are moving eastward into Montana this
afternoon. Expect clearing tonight in central Washington with fog
expected in the KGEG-KCOE-PUW area. Conditions in the for will
reduce requirements to IFR with periodic LIFR conditions. Snow
will again move in from the east Tuesday afternoon, increasing in
intensity into Wednesday. /KM

&&

Latest GEG Terminal Aerodrome Forecast (TAF)

FTUS44 KGEG 282339
KGEG 282337Z 2900/2924 32004KT P6SM VCSH SCT008 BKN050
     FM290600 33004KT P6SM OVC015
     FM291000 02004KT 4SM BR OVC018
     FM292100 06005KT 2SM -SN OVC015

Latest Area Terminal Aerodrome Forecasts (TAFs)

FTUS80 KSFF 282339 RRH
KSFF 282337Z 2900/2924 32007KT P6SM VCSH SCT020 BKN100
     FM291000 VRB02KT P6SM OVC035
     FM292100 VRB03KT 2SM -SN BR OVC015

FTUS46 KOTX 282337
TAFCOE
TAF
KCOE 282337Z 2900/2924 03008KT 4SM -SN OVC010
     FM290100 35007KT P6SM BKN020
     FM291800 03006KT 3SM BR OVC015
     FM292200 03005KT 2SM -SN OVC015=

FTUS54 KPUW 290148 AAA
KPUW 290145Z 2902/2924 29007KT P6SM OVC012
     FM290600 27006KT P6SM SCT018
     FM291400 00000KT 3SM BR VCFG SCT002 BKN015
     FM291900 12005KT P6SM SCT150 OVC200

FTUS46 KOTX 290136 AAA
TAFLWS
TAF AMD
KLWS 290136Z 2902/2924 27010KT P6SM BKN030 OVC050
     FM290500 27005KT P6SM SCT015 BKN050
     FM291300 VRB03KT 5SM BR FEW004 BKN040
     FM291900 20003KT P6SM BKN070 OVC150=

FTUS44 KMWH 282339
KMWH 282337Z 2900/2924 35009KT P6SM SCT070
     FM292000 36005KT 2SM -SN BR OVC015

FTUS80 KEAT 282339 RRB
KEAT 282337Z 2900/2924 03004KT P6SM SCT050
     FM290500 31004KT P6SM SCT070
     FM292000 29003KT 2SM -SN BR OVC015

FTUS80 KSEA 290309 AAA
KSEA 290308Z 2903/3006 01006KT P6SM BKN060 BKN090
     FM290600 07003KT P6SM SCT050
     FM291500 12005KT P6SM BKN025 OVC050
     FM291900 15006KT P6SM -RA OVC025
     FM292200 14007KT P6SM -RA OVC050

FTUS80 KBOI 290121 AAA
KBOI 290118Z 2901/2924 30010KT P6SM VCSH FEW025 BKN040
      TEMPO 2901/2902 5SM -SHSN OVC025
     FM290200 32007KT P6SM SCT040
     FM291000 VRB03KT P6SM VCFG BKN050
     FM291800 16005KT P6SM SKC

FTUS54 KPDT 290418 AAA
KPDT 290415Z 2904/2924 VRB05KT P6SM OVC019
     FM290800 03005KT P6SM OVC019
     FM291100 07002KT P6SM OVC025

FTUS80 KALW 290324 AAA
KALW 290322Z 2903/2924 VRB05KT P6SM VCSH SCT010 OVC030
      TEMPO 2903/2906 2SM -SN OVC015
     FM291500 17003KT P6SM OVC030

FTUS80 KPSC 282321 RRM
KPSC 282320Z 2900/2924 VRB04KT P6SM BKN050
     FM291800 01003KT P6SM BKN050

FTUS54 KYKM 282321 RRB
KYKM 282320Z 2900/2924 VRB05KT P6SM BKN045
     FM291800 28002KT 6SM BR OVC060
     FM292000 07002KT 1 1/2SM -SN BR HZ OVC050

FTUS80 KDLS 282321 RRC
KDLS 282320Z 2900/2924 VRB06KT P6SM BKN060
     FM291000 VRB03KT P6SM BKN035
     FM291400 12002KT P6SM OVC030
     FM292000 08002KT 4SM -SN OVC025

FTUS46 KPDT 282320
TAFBDN
TAF
KBDN 282320Z 2900/2924 33012KT 6SM BR BKN035
     FM290200 VRB05KT 6SM BR BKN050
     FM291200 09003KT P6SM OVC050=

FTUS44 KMSO 290221 AAA
KMSO 290217Z 2902/2924 11015G24KT P6SM BKN070
     FM290400 11012G16KT 3SM -SN BR OVC025
      TEMPO 2906/2909 1SM -SN BR OVC015
     FM291300 11007KT P6SM VCSH OVC030
     FM291600 12007KT P6SM OVC050

FTUS54 KBTM 282339
KBTM 282337Z 2900/2924 16015KT P6SM BKN060
     FM290200 17005KT P6SM OVC050
     FM291000 14003KT P6SM VCSH OVC025
     FM291200 11004KT 1 1/2SM -SN OVC025
     FM291600 VRB05KT 5SM -SHSN BKN030
     FM292000 VRB04KT P6SM BKN080

FTUS80 KSMN 282339 RRI
KSMN 282337Z 2900/2924 VRB04KT P6SM OVC100
     FM291000 VRB03KT P6SM VCSH OVC050 PROB30 2912/2916 2SM -SN
      BKN035
     FM291800 VRB05KT P6SM BKN050

FTUS44 KGPI 282339
KGPI 282337Z 2900/2924 02012G25KT P6SM OVC070
     FM290300 02012G22KT 3SM -SN BR OVC035
     FM290600 03014G22KT 1 1/2SM -SN BR OVC025
     FM291300 02009KT 5SM BR OVC025
     FM291600 01005KT P6SM BKN050

Raw METARs for WFO OTX CWA and Surrounding Areas

--TAFs--TimeTTdRHHIWCDirWindGPKVisWxPcpClouds
KGEG0453Z19106882601010TFEW015
BKN080
KSFF0453Z2418771826058 -SNTBKN019
OVC023
KCOE0456Z2320881531079 -SNTOVC017
KPUW0453Z22178215260510FEW014
BKN020
OVC090
KLWS0450Z30237522290810FEW026
OVC035
KMWH0452Z2254893401510CLR
KEAT0455Z2210601590510BKN034
--WA--TimeTTdRHHIWCDirWindGPKVisWxPcpClouds
KS520435Z150525340710CLR
KOMK0453Z1965763301210CLR
KS100355Z21-138
KEPH0453Z2165283501310CLR
K63S0435Z21168011310810BKN050
BKN060
OVC075
KDEW0453Z7487calm10BKN090
KSKA0356Z16768calm10BKN055
OVC080
--ID--TimeTTdRHHIWCDirWindGPKVisWxPcpClouds
K65S0435Z21147411340810SCT041
SCT060
OVC075
KSZT0435Z231986102016212 -SNOVC018
KMLP0453Z1210923/4 -SN BRTVV001
-PDT TAFs-TimeTTdRHHIWCDirWindGPKVisWxPcpClouds
KPDT0453Z29258519101210BKN021
OVC044
KALW0453Z2825882229054 -SN BRTOVC024
KPSC0453Z311347223401210OVC070
KYKM0453Z282381219078 -SNTOVC013
KDLS0453Z37287033320510SCT070
BKN080
BKN100
KRDM0450Z30196423260710BKN075
KBDN0435Z28217421280710FEW024
FEW032
-MSO TAFs-TimeTTdRHHIWCDirWindGPKVisWxPcpClouds
KMSO0453Z20116841102030312 1/2 -SNTOVC026
KBTM0453Z2-380calm10CLR
KSMN0456Z131088calm9TSCT041
BKN048
OVC080
KGPI0455Z1865932017294 -SNTOVC023
-Misc-TimeTTdRHHIWCDirWindGPKVisWxPcpClouds
KSEA0453Z3418522990610BKN055
KSMP0451Z191584VRB35 BRBKN001
OVC036
KELN0453Z25136016120910OVC060
K1YT0455Z271560197089 -SNTFEW013
OVC024
KRLD0435Z321448243301010OVC055
KGIC0435Z21199311120810BKN043
BKN050
OVC055
K1S50455Z3123712550610OVC035
KHRI0453Z31226921301310FEW030
OVC044
KP690452Z302892calm
KTHM0255Z272386calm1 1/2 BR
KS340255Z2727100calm2 BR

6-hr Lowest Expected Flight Category Forecasts - EXPERIMENTAL

 

•This site is for informational purposes. It should be used with other preflight information sources needed to satisfy all the requirements of 14 CFR 91.103. It is NOT designed to be used as a primary or sole source of information for preflight action. Refer to Flight Service for more information.

 
0-6 hr Ceiling Forecast 0-6 hr Visibility Forecast

No Plot Available

No Plot Available

6-12 hr Ceiling Forecast 6-12 hr Visibility Forecast

No Plot Available

No Plot Available

12-18 hr Ceiling Forecast 12-18 hr Visibility Forecast

No Plot Available

No Plot Available

18-24 hr Ceiling Forecast 18-24 hr Visibility Forecast

No Plot Available

No Plot Available

24-30 hr Ceiling Forecast 24-30 hr Visibility Forecast

No Plot Available

No Plot Available

KOTX Radar Loop

KOTX Radar

KATX Radar Loop

KATX Radar

KPDT Radar Loop

KPDT Radar

KMSX Radar Loop

KMSX Radar

Visible Satellite

Visible ImageVisible Loop

Infrared Satellite

Infrared ImageInfrared Loop

ZSE Briefing

ZNY Briefing

Turbulence PIREPs

Turbulence PIREPs

Icing PIREPs

Icing PIREPs

Weather/Sky PIREPs

Weather/Sky PIREPs

Current SIGMETs

Current SIGMETs

Sierra (Mountains/IFR) AIRMETs

Current 3-hr Forecast 6-hr Forecast

No Plot Available

No Plot Available

No Plot Available

9-hr Forecast 12-hr Forecast

No Plot Available

No Plot Available

Tango (Turbulence/LLWS) AIRMETs

Current 3-hr Forecast 6-hr Forecast

No Plot Available

No Plot Available

No Plot Available

9-hr Forecast 12-hr Forecast

No Plot Available

No Plot Available

Icing AIRMETs

Current 3-hr Forecast 6-hr Forecast

No Plot Available

No Plot Available

No Plot Available

9-hr Forecast 12-hr Forecast

No Plot Available

No Plot Available

Freezing Level AIRMETs

Current 3-hr Forecast 6-hr Forecast

No Plot Available

No Plot Available

No Plot Available

9-hr Forecast 12-hr Forecast

No Plot Available

No Plot Available

Legend

No Plot Available

Aviation Soaring Data
 
Upper Air sounding Soaring Forecast and Latest Sounding Skew-T Graph
(Soaring forecast based on today's 12Z balloon soundings)
 

NWS North American Mesoscale Model (NAM)
Soaring Forecasts - Experimental

(use right click and save as for the data file links )

   
 
Soaring Forecast and Data
Site
Today
Tomorrow
Spokane, WA
Wenatchee, WA
Ephrata, WA
Pullman, WA
Pasco/Tri-Cities, WA
Sea-Tac Apt., WA
Everett (Paine Field) , WA
Tacoma, WA
     
Redmond, OR
Baker City, OR
Salem, OR
Hillsboro, OR
Hood River, OR
Boise, ID
Missoula, MT
Great Falls, MT
Kalispell, MT
Bozeman, MT
     

- Information about this page and model based soaring forecasts -
 
NWS Forecast Discussions
  NAM Model Meteograms